createdAt,value
2019-05-09T00:00:14.266Z,89.23
2019-05-09T00:01:14.300Z,89.13
2019-05-09T00:02:13.864Z,89.64
2019-05-09T00:03:13.962Z,90.26
2019-05-09T00:04:14.034Z,90.05
2019-05-09T00:05:13.943Z,90.46
2019-05-09T00:06:13.845Z,90.05
2019-05-09T00:07:14.051Z,89.33
2019-05-09T00:08:14.044Z,89.23
2019-05-09T00:09:13.947Z,89.33
2019-05-09T00:10:14.225Z,90.05
2019-05-09T00:11:14.487Z,90.61
2019-05-09T00:12:14.172Z,90.46
2019-05-09T00:13:13.860Z,90.77
2019-05-09T00:14:13.707Z,91.38
2019-05-09T00:15:13.729Z,90.97
2019-05-09T00:16:14.490Z,89.75
2019-05-09T00:17:14.061Z,91.49
2019-05-09T00:18:14.264Z,90.87
2019-05-09T00:19:13.655Z,91.49
2019-05-09T00:20:13.679Z,90.36
2019-05-09T00:21:13.543Z,90.26
2019-05-09T00:22:13.856Z,90.97
2019-05-09T00:23:13.685Z,90.87
2019-05-09T00:24:14.020Z,91.38
2019-05-09T00:25:13.414Z,91.69
2019-05-09T00:26:13.580Z,92.21
2019-05-09T00:27:14.179Z,90.77
2019-05-09T00:28:13.652Z,91.08
2019-05-09T00:29:14.100Z,91.49
2019-05-09T00:30:13.961Z,91.38
2019-05-09T00:31:13.723Z,90.46
2019-05-09T00:32:13.740Z,90.36
2019-05-09T00:33:14.295Z,90.56
2019-05-09T00:34:14.381Z,90.56
2019-05-09T00:35:14.166Z,89.95
2019-05-09T00:36:14.071Z,90.36
2019-05-09T00:37:13.593Z,90.26
2019-05-09T00:38:13.423Z,90.05
2019-05-09T00:39:13.477Z,90.36
2019-05-09T00:40:13.375Z,90.77
2019-05-09T00:41:14.003Z,90.61
2019-05-09T00:42:13.804Z,90.20
2019-05-09T00:43:13.317Z,90.09
2019-05-09T00:44:13.858Z,90.71
2019-05-09T00:45:13.385Z,90.81
2019-05-09T00:46:14.127Z,91.12
2019-05-09T00:47:13.561Z,90.91
2019-05-09T00:48:14.064Z,91.53
2019-05-09T00:49:14.022Z,91.42
2019-05-09T00:50:13.282Z,91.53
2019-05-09T00:51:14.035Z,90.91
2019-05-09T00:52:14.099Z,89.89
2019-05-09T00:53:13.798Z,90.05
2019-05-09T00:54:13.592Z,90.71
2019-05-09T00:55:13.288Z,91.63
2019-05-09T00:56:13.512Z,90.50
2019-05-09T00:57:13.775Z,90.20
2019-05-09T00:58:13.651Z,90.30
2019-05-09T00:59:13.604Z,91.63
2019-05-09T01:00:14.554Z,90.91
2019-05-09T01:01:13.342Z,91.42
2019-05-09T01:02:13.250Z,90.71
2019-05-09T01:03:14.150Z,90.71
2019-05-09T01:04:13.631Z,90.50
2019-05-09T01:05:13.301Z,89.27
2019-05-09T01:06:13.552Z,89.17
2019-05-09T01:07:13.896Z,89.37
2019-05-09T01:08:13.691Z,89.27
2019-05-09T01:09:13.770Z,88.45
2019-05-09T01:10:13.499Z,86.40
2019-05-09T01:11:15.462Z,86.60
2019-05-09T01:12:14.373Z,87.32
2019-05-09T01:13:14.154Z,87.94
2019-05-09T01:14:14.234Z,88.24
2019-05-09T01:15:13.428Z,87.79
2019-05-09T01:16:13.499Z,86.81
2019-05-09T01:17:13.709Z,87.53
2019-05-09T01:18:13.314Z,86.81
2019-05-09T01:19:14.090Z,87.84
2019-05-09T01:20:14.724Z,88.51
2019-05-09T01:21:13.472Z,88.45
2019-05-09T01:22:13.297Z,88.45
2019-05-09T01:23:14.232Z,88.66
2019-05-09T01:24:13.887Z,88.45
2019-05-09T01:25:13.416Z,88.35
2019-05-09T01:26:13.334Z,88.35
2019-05-09T01:27:14.186Z,89.37
2019-05-09T01:28:13.972Z,89.72
2019-05-09T01:29:13.745Z,89.27
2019-05-09T01:30:13.541Z,88.56
2019-05-09T01:31:13.282Z,88.59
2019-05-09T01:32:14.391Z,87.94
2019-05-09T01:33:14.243Z,87.02
2019-05-09T01:34:13.315Z,88.14
2019-05-09T01:35:13.243Z,87.73
2019-05-09T01:36:14.379Z,86.85
2019-05-09T01:37:14.046Z,87.32
2019-05-09T01:38:14.165Z,87.73
2019-05-09T01:39:13.823Z,87.73
2019-05-09T01:40:13.254Z,88.76
2019-05-09T01:41:27.136Z,89.31
2019-05-09T01:42:13.869Z,87.84
2019-05-09T01:43:13.869Z,87.67
2019-05-09T01:44:13.439Z,88.45
2019-05-09T01:45:14.105Z,88.59
2019-05-09T01:46:14.466Z,89.52
2019-05-09T01:47:14.115Z,89.31
2019-05-09T01:48:14.005Z,89.21
2019-05-09T01:50:23.194Z,89.83
2019-05-09T01:51:23.155Z,89.42
2019-05-09T01:52:23.201Z,88.29
2019-05-09T01:53:21.266Z,89.42
2019-05-09T01:54:21.202Z,90.44
2019-05-09T01:55:23.413Z,89.62
2019-05-09T01:56:23.311Z,89.42
2019-05-09T01:57:23.133Z,89.31
2019-05-09T01:58:23.135Z,88.39
2019-05-09T01:59:21.160Z,88.49
2019-05-09T02:00:21.137Z,88.29
2019-05-09T02:01:21.159Z,89.31
2019-05-09T02:02:23.422Z,89.72
2019-05-09T02:03:23.328Z,87.98
2019-05-09T02:04:21.094Z,88.70
2019-05-09T02:05:21.085Z,88.59
2019-05-09T02:06:21.095Z,88.59
2019-05-09T02:07:21.093Z,88.49
2019-05-09T02:08:23.464Z,88.39
2019-05-09T02:09:23.261Z,86.54
2019-05-09T02:10:23.091Z,87.40
2019-05-09T02:11:21.030Z,87.51
2019-05-09T02:12:21.009Z,87.05
2019-05-09T02:13:22.907Z,87.67
2019-05-09T02:14:21.043Z,87.98
2019-05-09T02:15:21.015Z,86.75
2019-05-09T02:16:23.342Z,88.59
2019-05-09T02:17:23.130Z,87.37
2019-05-09T02:18:22.995Z,86.54
2019-05-09T02:19:20.955Z,87.16
2019-05-09T02:20:20.936Z,86.33
2019-05-09T02:21:20.966Z,87.26
2019-05-09T02:22:20.902Z,88.18
2019-05-09T02:23:20.899Z,87.05
2019-05-09T02:24:23.280Z,88.56
2019-05-09T02:25:20.871Z,87.37
2019-05-09T02:26:20.871Z,87.26
2019-05-09T02:27:20.849Z,87.77
2019-05-09T02:28:20.846Z,87.77
2019-05-09T02:29:22.960Z,87.98
2019-05-09T02:30:20.835Z,88.49
2019-05-09T02:31:20.808Z,88.08
2019-05-09T02:32:23.742Z,87.57
2019-05-09T02:33:20.805Z,87.98
2019-05-09T02:34:20.797Z,87.37
2019-05-09T02:35:20.810Z,88.33
2019-05-09T02:36:20.757Z,87.26
2019-05-09T02:37:20.743Z,88.02
2019-05-09T02:38:20.732Z,88.23
2019-05-09T02:39:20.729Z,87.88
2019-05-09T02:40:20.767Z,86.58
2019-05-09T02:41:20.706Z,87.61
2019-05-09T02:42:20.694Z,88.53
2019-05-09T02:43:20.680Z,88.95
2019-05-09T02:44:20.666Z,89.21
2019-05-09T02:45:20.701Z,89.15
2019-05-09T02:46:20.681Z,89.04
2019-05-09T02:47:20.634Z,89.56
2019-05-09T02:48:20.627Z,89.15
2019-05-09T02:49:20.652Z,88.02
2019-05-09T02:50:20.633Z,87.82
2019-05-09T02:51:20.598Z,88.64
2019-05-09T02:52:20.580Z,89.15
2019-05-09T02:53:20.591Z,89.56
2019-05-09T02:54:20.561Z,89.04
2019-05-09T02:55:20.610Z,89.36
2019-05-09T02:56:20.539Z,89.25
2019-05-09T02:57:20.530Z,89.40
2019-05-09T02:58:20.728Z,88.98
2019-05-09T02:59:20.519Z,90.73
2019-05-09T03:00:20.566Z,91.04
2019-05-09T03:01:20.497Z,91.25
2019-05-09T03:02:20.490Z,91.25
2019-05-09T03:03:20.494Z,91.76
2019-05-09T03:04:20.479Z,92.42
2019-05-09T03:05:20.451Z,92.21
2019-05-09T03:06:20.470Z,92.52
2019-05-09T03:07:20.423Z,92.21
2019-05-09T03:08:20.411Z,91.29
2019-05-09T03:09:20.407Z,91.29
2019-05-09T03:10:20.397Z,91.19
2019-05-09T03:11:20.399Z,91.04
2019-05-09T03:12:30.378Z,91.70
2019-05-09T03:13:21.381Z,91.70
2019-05-09T03:14:20.358Z,90.42
2019-05-09T03:15:20.380Z,91.66
2019-05-09T03:16:20.324Z,91.66
2019-05-09T03:17:20.327Z,92.17
2019-05-09T03:18:20.326Z,91.97
2019-05-09T03:19:20.323Z,91.86
2019-05-09T03:20:20.305Z,92.48
2019-05-09T03:21:20.272Z,93.10
2019-05-09T03:22:20.268Z,92.69
2019-05-09T03:23:20.260Z,91.70
2019-05-09T03:24:20.263Z,91.86
2019-05-09T03:25:20.228Z,91.60
2019-05-09T03:26:20.276Z,90.53
2019-05-09T03:27:20.218Z,91.66
2019-05-09T03:28:20.208Z,91.66
2019-05-09T03:29:20.205Z,91.66
2019-05-09T03:30:20.985Z,92.38
2019-05-09T03:31:20.189Z,91.76
2019-05-09T03:32:20.161Z,91.55
2019-05-09T03:33:20.466Z,92.17
2019-05-09T03:34:20.133Z,91.66
2019-05-09T03:35:20.125Z,92.27
2019-05-09T03:36:20.140Z,91.86
2019-05-09T03:37:20.104Z,91.66
2019-05-09T03:38:20.151Z,92.27
2019-05-09T03:39:20.074Z,92.17
2019-05-09T03:40:20.093Z,92.79
2019-05-09T03:41:20.074Z,92.38
2019-05-09T03:42:23.015Z,91.97
2019-05-09T03:43:21.030Z,91.86
2019-05-09T03:44:20.054Z,92.48
2019-05-09T03:45:20.013Z,92.99
2019-05-09T03:46:20.030Z,92.79
2019-05-09T03:47:19.989Z,92.38
2019-05-09T03:48:19.982Z,93.30
2019-05-09T03:49:19.970Z,92.58
2019-05-09T03:50:19.961Z,92.48
2019-05-09T03:51:19.976Z,92.58
2019-05-09T03:52:19.938Z,92.89
2019-05-09T03:53:19.942Z,92.89
2019-05-09T03:54:19.919Z,92.89
2019-05-09T03:55:19.924Z,92.99
2019-05-09T03:56:19.931Z,93.40
2019-05-09T03:57:19.925Z,93.30
2019-05-09T03:58:19.871Z,93.10
2019-05-09T03:59:19.872Z,93.20
2019-05-09T04:00:19.879Z,93.20
2019-05-09T04:01:19.877Z,93.35
2019-05-09T04:02:19.844Z,93.44
2019-05-09T04:03:20.331Z,93.10
2019-05-09T04:04:19.848Z,92.48
2019-05-09T04:05:19.800Z,92.99
2019-05-09T04:06:19.805Z,92.73
2019-05-09T04:07:19.831Z,92.83
2019-05-09T04:08:19.765Z,92.52
2019-05-09T04:09:19.754Z,93.10
2019-05-09T04:10:19.813Z,93.10
2019-05-09T04:11:19.749Z,93.20
2019-05-09T04:12:19.741Z,91.66
2019-05-09T04:13:19.727Z,92.69
2019-05-09T04:14:21.622Z,93.04
2019-05-09T04:15:19.698Z,93.35
2019-05-09T04:16:19.695Z,92.93
2019-05-09T04:17:19.689Z,92.48
2019-05-09T04:18:19.660Z,92.73
2019-05-09T04:19:19.658Z,92.93
2019-05-09T04:20:19.669Z,92.32
2019-05-09T04:21:19.629Z,92.63
2019-05-09T04:22:19.671Z,93.35
2019-05-09T04:23:19.604Z,93.65
2019-05-09T04:24:19.591Z,93.44
2019-05-09T04:25:19.602Z,93.96
2019-05-09T04:26:19.572Z,93.96
2019-05-09T04:27:19.610Z,93.35
2019-05-09T04:28:19.564Z,93.86
2019-05-09T04:29:19.573Z,93.55
2019-05-09T04:30:19.529Z,93.35
2019-05-09T04:31:19.529Z,93.35
2019-05-09T04:32:19.525Z,93.35
2019-05-09T04:33:19.526Z,93.44
2019-05-09T04:34:19.496Z,93.14
2019-05-09T04:35:19.494Z,92.93
2019-05-09T04:36:19.511Z,92.63
2019-05-09T04:37:19.498Z,92.93
2019-05-09T04:38:19.445Z,93.24
2019-05-09T04:39:23.548Z,93.44
2019-05-09T04:40:19.464Z,93.04
2019-05-09T04:41:23.939Z,93.35
2019-05-09T04:42:20.444Z,93.24
2019-05-09T04:43:27.300Z,93.24
2019-05-09T04:44:21.827Z,92.83
2019-05-09T04:45:19.390Z,92.52
2019-05-09T04:46:24.179Z,92.93
2019-05-09T04:47:20.408Z,93.24
2019-05-09T04:48:23.910Z,93.04
2019-05-09T04:49:19.354Z,93.18
2019-05-09T04:50:23.175Z,92.63
2019-05-09T04:51:20.343Z,92.73
2019-05-09T04:52:19.340Z,93.59
2019-05-09T04:53:19.305Z,93.29
2019-05-09T04:54:19.302Z,93.39
2019-05-09T04:55:19.266Z,92.67
2019-05-09T04:56:19.286Z,93.04
2019-05-09T04:57:19.313Z,93.18
2019-05-09T04:58:19.491Z,93.29
2019-05-09T04:59:19.314Z,92.42
2019-05-09T05:00:19.213Z,93.35
2019-05-09T05:01:19.776Z,92.77
2019-05-09T05:02:19.188Z,93.55
2019-05-09T05:03:19.218Z,92.83
2019-05-09T05:04:19.169Z,93.76
2019-05-09T05:05:19.155Z,93.86
2019-05-09T05:06:20.750Z,94.48
2019-05-09T05:07:19.148Z,94.78
2019-05-09T05:08:19.143Z,94.48
2019-05-09T05:09:20.933Z,94.58
2019-05-09T05:10:19.104Z,94.89
2019-05-09T05:11:19.097Z,94.99
2019-05-09T05:12:19.080Z,95.09
2019-05-09T05:13:26.283Z,95.50
2019-05-09T05:14:20.062Z,95.92
2019-05-09T05:15:20.578Z,96.12
2019-05-09T05:16:19.042Z,95.81
2019-05-09T05:17:19.027Z,96.02
2019-05-09T05:18:20.308Z,95.92
2019-05-09T05:19:19.007Z,94.78
2019-05-09T05:20:19.011Z,95.40
2019-05-09T05:21:20.410Z,95.61
2019-05-09T05:22:19.016Z,96.12
2019-05-09T05:23:18.982Z,95.92
2019-05-09T05:24:18.953Z,96.12
2019-05-09T05:25:18.955Z,96.12
2019-05-09T05:26:18.933Z,95.71
2019-05-09T05:27:19.091Z,95.92
2019-05-09T05:28:18.939Z,95.40
2019-05-09T05:29:18.901Z,95.40
2019-05-09T05:30:18.998Z,95.67
2019-05-09T05:31:18.878Z,96.08
2019-05-09T05:32:18.869Z,95.81
2019-05-09T05:33:18.856Z,95.77
2019-05-09T05:34:19.526Z,96.69
2019-05-09T05:35:18.846Z,96.39
2019-05-09T05:36:18.826Z,96.69
2019-05-09T05:37:18.812Z,96.59
2019-05-09T05:38:18.803Z,95.87
2019-05-09T05:39:18.813Z,96.03
2019-05-09T05:40:18.779Z,95.83
2019-05-09T05:41:18.769Z,95.62
2019-05-09T05:42:22.013Z,95.72
2019-05-09T05:43:18.760Z,95.10
2019-05-09T05:44:18.760Z,94.80
2019-05-09T05:45:18.729Z,95.42
2019-05-09T05:46:18.717Z,95.06
2019-05-09T05:47:18.708Z,95.01
2019-05-09T05:48:18.695Z,94.76
2019-05-09T05:49:18.800Z,94.04
2019-05-09T05:50:18.672Z,94.45
2019-05-09T05:51:18.662Z,93.42
2019-05-09T05:52:18.679Z,93.93
2019-05-09T05:53:18.645Z,94.51
2019-05-09T05:54:19.533Z,94.10
2019-05-09T05:55:18.620Z,94.30
2019-05-09T05:56:18.609Z,94.10
2019-05-09T05:57:18.601Z,91.33
2019-05-09T05:58:18.590Z,92.82
2019-05-09T05:59:18.598Z,93.13
2019-05-09T06:00:18.568Z,91.59
2019-05-09T06:01:18.945Z,91.38
2019-05-09T06:02:18.546Z,91.38
2019-05-09T06:03:18.534Z,92.16
2019-05-09T06:04:27.573Z,90.32
2019-05-09T06:05:18.852Z,90.28
2019-05-09T06:06:18.535Z,90.17
2019-05-09T06:07:18.618Z,90.48
2019-05-09T06:08:18.492Z,89.21
2019-05-09T06:09:19.100Z,89.42
2019-05-09T06:10:18.901Z,89.51
2019-05-09T06:11:18.466Z,90.30
2019-05-09T06:12:18.619Z,90.15
2019-05-09T06:13:18.440Z,87.49
2019-05-09T06:14:18.793Z,86.46
2019-05-09T06:15:18.537Z,87.70
2019-05-09T06:16:22.185Z,85.64
2019-05-09T06:17:18.388Z,87.45
2019-05-09T06:18:18.606Z,87.55
2019-05-09T06:19:18.453Z,86.22
2019-05-09T06:20:18.360Z,85.30
2019-05-09T06:21:18.342Z,84.44
2019-05-09T06:22:18.563Z,84.34
2019-05-09T06:23:18.333Z,84.75
2019-05-09T06:24:18.334Z,82.50
2019-05-09T06:25:20.938Z,83.11
2019-05-09T06:26:18.831Z,84.55
2019-05-09T06:27:18.426Z,84.14
2019-05-09T06:28:18.418Z,84.14
2019-05-09T06:29:18.275Z,84.24
2019-05-09T06:30:18.245Z,84.09
2019-05-09T06:31:28.289Z,81.27
2019-05-09T06:32:18.989Z,82.77
2019-05-09T06:33:18.252Z,80.87
2019-05-09T06:34:18.891Z,81.34
2019-05-09T06:35:18.194Z,82.77
2019-05-09T06:36:18.959Z,81.34
2019-05-09T06:37:18.522Z,80.32
2019-05-09T06:38:18.864Z,81.03
2019-05-09T06:39:18.216Z,82.26
2019-05-09T06:40:21.284Z,82.67
2019-05-09T06:41:18.141Z,81.65
2019-05-09T06:42:18.385Z,81.30
2019-05-09T06:43:18.396Z,82.01
2019-05-09T06:44:20.641Z,83.44
2019-05-09T06:45:18.124Z,83.04
2019-05-09T06:46:18.395Z,80.48
2019-05-09T06:47:18.604Z,80.38
2019-05-09T06:48:18.206Z,80.99
2019-05-09T06:49:27.569Z,82.01
2019-05-09T06:50:19.048Z,81.30
2019-05-09T06:51:21.227Z,82.01
2019-05-09T06:52:18.011Z,81.60
2019-05-09T06:53:18.217Z,81.51
2019-05-09T06:54:17.992Z,81.30
2019-05-09T06:55:17.997Z,80.69
2019-05-09T06:56:17.974Z,82.63
2019-05-09T06:57:18.677Z,82.83
2019-05-09T06:58:18.426Z,83.04
2019-05-09T06:59:19.082Z,82.53
2019-05-09T07:00:17.967Z,82.69
2019-05-09T07:01:18.367Z,80.75
2019-05-09T07:02:17.913Z,82.08
2019-05-09T07:03:18.497Z,82.55
2019-05-09T07:04:18.403Z,81.12
2019-05-09T07:05:18.025Z,82.14
2019-05-09T07:06:17.908Z,81.29
2019-05-09T07:07:17.849Z,80.07
2019-05-09T07:08:18.381Z,79.66
2019-05-09T07:09:17.826Z,80.98
2019-05-09T07:10:17.909Z,80.98
2019-05-09T07:11:19.198Z,80.37
2019-05-09T07:12:18.087Z,79.96
2019-05-09T07:13:18.323Z,79.86
2019-05-09T07:14:28.372Z,79.35
2019-05-09T07:15:18.758Z,78.43
2019-05-09T07:16:18.650Z,78.74
2019-05-09T07:17:18.420Z,80.16
2019-05-09T07:18:18.417Z,77.72
2019-05-09T07:19:17.717Z,77.51
2019-05-09T07:20:18.347Z,78.53
2019-05-09T07:21:19.007Z,78.02
2019-05-09T07:22:18.596Z,78.06
2019-05-09T07:23:17.871Z,77.00
2019-05-09T07:24:18.482Z,78.74
2019-05-09T07:25:18.583Z,77.65
2019-05-09T07:26:17.887Z,78.06
2019-05-09T07:27:17.965Z,78.16
2019-05-09T07:28:18.066Z,78.06
2019-05-09T07:29:17.929Z,78.37
2019-05-09T07:30:18.082Z,78.88
2019-05-09T07:31:17.808Z,79.08
2019-05-09T07:32:18.222Z,78.84
2019-05-09T07:33:19.026Z,78.74
2019-05-09T07:34:18.465Z,78.27
2019-05-09T07:35:18.599Z,78.23
2019-05-09T07:36:18.932Z,79.04
2019-05-09T07:37:18.632Z,78.23
2019-05-09T07:38:17.849Z,77.65
2019-05-09T07:39:17.683Z,77.45
2019-05-09T07:40:18.193Z,77.00
2019-05-09T07:41:17.897Z,79.80
2019-05-09T07:42:18.121Z,78.12
2019-05-09T07:43:18.105Z,78.27
2019-05-09T07:44:18.235Z,76.93
2019-05-09T07:45:18.013Z,76.59
2019-05-09T07:46:17.772Z,77.92
2019-05-09T07:47:17.802Z,76.70
2019-05-09T07:48:18.136Z,76.39
2019-05-09T07:49:17.610Z,76.09
2019-05-09T07:50:18.903Z,75.78
2019-05-09T07:51:18.110Z,75.48
2019-05-09T07:52:18.630Z,75.48
2019-05-09T07:53:17.761Z,74.76
2019-05-09T07:54:24.685Z,75.78
2019-05-09T07:55:18.338Z,76.70
2019-05-09T07:56:18.694Z,76.50
2019-05-09T07:57:18.207Z,77.11
2019-05-09T07:58:18.667Z,76.19
2019-05-09T07:59:18.104Z,77.21
2019-05-09T08:00:18.386Z,76.80
2019-05-09T08:01:19.021Z,77.92
2019-05-09T08:02:17.763Z,76.09
2019-05-09T08:03:18.103Z,77.82
2019-05-09T08:04:18.283Z,76.50
2019-05-09T08:05:17.461Z,76.29
2019-05-09T08:06:18.412Z,77.82
2019-05-09T08:07:17.645Z,77.92
2019-05-09T08:08:18.580Z,78.33
2019-05-09T08:09:18.708Z,77.41
2019-05-09T08:10:17.645Z,76.59
2019-05-09T08:11:17.998Z,76.19
2019-05-09T08:12:17.946Z,76.19
2019-05-09T08:13:18.239Z,77.82
2019-05-09T08:14:17.690Z,77.58
2019-05-09T08:15:20.031Z,78.19
2019-05-09T08:16:18.640Z,76.90
2019-05-09T08:17:18.143Z,76.46
2019-05-09T08:18:17.509Z,76.50
2019-05-09T08:19:18.072Z,76.46
2019-05-09T08:20:17.604Z,76.39
2019-05-09T08:21:18.048Z,76.46
2019-05-09T08:22:23.097Z,75.03
2019-05-09T08:23:18.142Z,76.25
2019-05-09T08:24:18.315Z,76.87
2019-05-09T08:25:18.319Z,77.37
2019-05-09T08:26:18.908Z,77.58
2019-05-09T08:27:17.573Z,76.87
2019-05-09T08:28:17.714Z,76.15
2019-05-09T08:29:19.548Z,75.95
2019-05-09T08:30:18.025Z,76.46
2019-05-09T08:31:17.837Z,76.53
2019-05-09T08:32:18.069Z,77.68
2019-05-09T08:33:18.403Z,78.97
2019-05-09T08:34:18.703Z,79.48
2019-05-09T08:35:18.301Z,75.51
2019-05-09T08:36:18.036Z,76.42
2019-05-09T08:37:17.570Z,77.03
2019-05-09T08:38:17.917Z,76.53
2019-05-09T08:39:20.182Z,76.22
2019-05-09T08:40:21.084Z,74.69
2019-05-09T08:41:18.662Z,74.79
2019-05-09T08:42:18.047Z,75.13
2019-05-09T08:43:19.538Z,74.38
2019-05-09T08:44:18.641Z,74.69
2019-05-09T08:45:26.886Z,74.69
2019-05-09T08:46:18.241Z,74.69
2019-05-09T08:47:18.473Z,74.28
2019-05-09T08:48:18.416Z,74.65
2019-05-09T08:49:18.243Z,74.08
2019-05-09T08:50:17.594Z,74.58
2019-05-09T08:51:18.021Z,73.88
2019-05-09T08:52:19.544Z,74.69
2019-05-09T08:53:18.805Z,74.90
2019-05-09T08:54:18.413Z,74.65
2019-05-09T08:55:17.494Z,74.69
2019-05-09T08:56:17.829Z,75.10
2019-05-09T08:57:18.202Z,75.10
2019-05-09T08:58:19.584Z,74.86
2019-05-09T08:59:18.328Z,74.65
2019-05-09T09:00:18.890Z,74.76
2019-05-09T09:01:27.517Z,74.86
2019-05-09T09:02:21.992Z,74.04
2019-05-09T09:03:18.519Z,74.25
2019-05-09T09:04:18.957Z,75.16
2019-05-09T09:05:18.686Z,74.45
2019-05-09T09:06:18.346Z,73.94
2019-05-09T09:07:18.712Z,75.02
2019-05-09T09:08:18.315Z,75.13
2019-05-09T09:09:17.991Z,74.01
2019-05-09T09:10:18.636Z,73.19
2019-05-09T09:11:18.757Z,72.89
2019-05-09T09:12:27.035Z,71.94
2019-05-09T09:13:17.634Z,72.34
2019-05-09T09:14:18.508Z,71.94
2019-05-09T09:15:18.043Z,72.75
2019-05-09T09:16:21.626Z,71.64
2019-05-09T09:17:18.772Z,71.43
2019-05-09T09:18:17.984Z,72.75
2019-05-09T09:19:17.905Z,73.77
2019-05-09T09:20:18.206Z,74.79
2019-05-09T09:21:18.340Z,74.89
2019-05-09T09:22:17.988Z,74.69
2019-05-09T09:23:18.096Z,74.48
2019-05-09T09:24:17.679Z,75.09
2019-05-09T09:25:18.383Z,74.69
2019-05-09T09:26:18.380Z,73.87
2019-05-09T09:27:18.250Z,73.47
2019-05-09T09:28:18.250Z,73.77
2019-05-09T09:29:17.813Z,73.60
2019-05-09T09:30:21.692Z,72.34
2019-05-09T09:31:18.034Z,72.28
2019-05-09T09:32:18.682Z,72.75
2019-05-09T09:33:17.605Z,72.08
2019-05-09T09:34:18.140Z,73.19
2019-05-09T09:35:18.502Z,73.10
2019-05-09T09:36:17.877Z,74.32
2019-05-09T09:37:18.555Z,74.11
2019-05-09T09:38:17.678Z,73.40
2019-05-09T09:39:18.347Z,73.60
2019-05-09T09:40:17.707Z,71.77
2019-05-09T09:41:18.159Z,72.48
2019-05-09T09:42:19.459Z,74.52
2019-05-09T09:43:17.645Z,75.43
2019-05-09T09:44:18.221Z,75.60
2019-05-09T09:45:18.427Z,74.69
2019-05-09T09:46:18.151Z,73.67
2019-05-09T09:47:22.385Z,72.65
2019-05-09T09:48:18.130Z,72.75
2019-05-09T09:49:18.074Z,72.55
2019-05-09T09:50:17.708Z,72.96
2019-05-09T09:51:18.344Z,72.34
2019-05-09T09:52:18.519Z,73.16
2019-05-09T09:53:17.806Z,74.28
2019-05-09T09:54:18.635Z,73.77
2019-05-09T09:55:18.290Z,73.63
2019-05-09T09:56:17.847Z,74.08
2019-05-09T09:57:18.827Z,74.18
2019-05-09T09:58:18.699Z,74.89
2019-05-09T09:59:16.015Z,73.47
2019-05-09T10:00:18.081Z,74.58
2019-05-09T10:01:18.110Z,74.89
2019-05-09T10:02:15.984Z,73.67
2019-05-09T10:03:18.518Z,72.55
2019-05-09T10:04:23.538Z,74.08
2019-05-09T10:05:18.311Z,73.67
2019-05-09T10:06:15.918Z,72.86
2019-05-09T10:07:15.930Z,71.53
2019-05-09T10:08:18.139Z,71.94
2019-05-09T10:09:17.508Z,72.45
2019-05-09T10:10:18.400Z,72.14
2019-05-09T10:11:17.934Z,71.94
2019-05-09T10:12:18.025Z,72.45
2019-05-09T10:13:18.300Z,71.33
2019-05-09T10:14:18.510Z,71.36
2019-05-09T10:15:15.821Z,71.77
2019-05-09T10:16:28.594Z,71.56
2019-05-09T10:17:17.940Z,71.06
2019-05-09T10:18:18.106Z,71.87
2019-05-09T10:19:15.774Z,71.97
2019-05-09T10:20:18.014Z,72.69
2019-05-09T10:21:15.754Z,72.58
2019-05-09T10:22:22.944Z,72.96
2019-05-09T10:23:18.806Z,71.77
2019-05-09T10:24:17.495Z,72.69
2019-05-09T10:25:18.130Z,71.97
2019-05-09T10:26:17.785Z,72.38
2019-05-09T10:27:18.284Z,72.89
2019-05-09T10:28:21.591Z,72.78
2019-05-09T10:29:17.719Z,72.48
2019-05-09T10:30:17.896Z,73.30
2019-05-09T10:31:15.656Z,72.99
2019-05-09T10:32:17.917Z,72.58
2019-05-09T10:33:17.559Z,72.99
2019-05-09T10:34:17.648Z,72.78
2019-05-09T10:35:17.664Z,72.69
2019-05-09T10:36:15.607Z,72.89
2019-05-09T10:37:15.585Z,72.69
2019-05-09T10:38:18.180Z,71.02
2019-05-09T10:39:15.564Z,72.08
2019-05-09T10:40:15.551Z,72.78
2019-05-09T10:41:15.544Z,73.26
2019-05-09T10:42:15.535Z,72.04
2019-05-09T10:43:30.700Z,72.14
2019-05-09T10:44:18.045Z,72.31
2019-05-09T10:45:17.805Z,73.02
2019-05-09T10:46:19.122Z,71.60
2019-05-09T10:47:15.479Z,72.62
2019-05-09T10:48:15.477Z,70.99
2019-05-09T10:49:15.474Z,71.40
2019-05-09T10:50:18.306Z,71.19
2019-05-09T10:51:15.430Z,72.11
2019-05-09T10:52:18.054Z,73.19
2019-05-09T10:53:17.844Z,71.16
2019-05-09T10:54:15.418Z,71.67
2019-05-09T10:55:17.711Z,71.67
2019-05-09T10:56:15.378Z,71.97
2019-05-09T10:57:15.367Z,71.77
2019-05-09T10:58:15.357Z,72.48
2019-05-09T10:59:15.364Z,71.36
2019-05-09T11:00:15.336Z,72.78
2019-05-09T11:01:15.330Z,71.67
2019-05-09T11:02:17.468Z,74.52
2019-05-09T11:03:17.903Z,72.38
2019-05-09T11:04:17.869Z,74.41
2019-05-09T11:05:15.280Z,73.39
2019-05-09T11:06:18.028Z,72.69
2019-05-09T11:07:15.295Z,73.39
2019-05-09T11:08:15.250Z,73.39
2019-05-09T11:09:18.019Z,74.48
2019-05-09T11:10:25.936Z,73.46
2019-05-09T11:11:18.155Z,72.14
2019-05-09T11:12:15.204Z,74.38
2019-05-09T11:13:15.193Z,72.34
2019-05-09T11:14:31.625Z,73.43
2019-05-09T11:15:17.745Z,73.22
2019-05-09T11:16:15.165Z,71.50
2019-05-09T11:17:19.267Z,71.20
2019-05-09T11:18:18.385Z,70.59
2019-05-09T11:19:15.134Z,70.45
2019-05-09T11:20:15.137Z,72.89
2019-05-09T11:21:15.109Z,71.26
2019-05-09T11:22:15.106Z,72.58
2019-05-09T11:23:15.088Z,73.19
2019-05-09T11:24:15.096Z,69.95
2019-05-09T11:25:15.084Z,69.95
2019-05-09T11:26:17.672Z,70.62
2019-05-09T11:27:15.048Z,68.59
2019-05-09T11:28:15.712Z,69.81
2019-05-09T11:29:15.027Z,68.62
2019-05-09T11:30:15.037Z,68.73
2019-05-09T11:31:18.030Z,68.62
2019-05-09T11:32:14.990Z,70.45
2019-05-09T11:33:14.979Z,71.23
2019-05-09T11:34:14.971Z,68.19
2019-05-09T11:35:14.983Z,69.91
2019-05-09T11:36:17.454Z,71.23
2019-05-09T11:37:15.943Z,70.39
2019-05-09T11:38:17.655Z,69.27
2019-05-09T11:39:34.117Z,70.28
2019-05-09T11:40:15.976Z,68.56
2019-05-09T11:41:15.113Z,69.64
2019-05-09T11:42:14.895Z,68.66
2019-05-09T11:43:14.877Z,69.07
2019-05-09T11:44:14.861Z,68.66
2019-05-09T11:45:14.851Z,70.86
2019-05-09T11:46:14.858Z,69.07
2019-05-09T11:47:28.568Z,68.59
2019-05-09T11:48:15.819Z,68.70
2019-05-09T11:49:14.813Z,69.68
2019-05-09T11:50:14.802Z,70.48
2019-05-09T11:51:14.805Z,71.53
2019-05-09T11:52:14.783Z,70.62
2019-05-09T11:53:14.764Z,68.60
2019-05-09T11:54:17.259Z,69.88
2019-05-09T11:55:29.783Z,67.55
2019-05-09T11:56:17.943Z,67.14
2019-05-09T11:57:14.737Z,67.76
2019-05-09T11:58:14.711Z,68.87
2019-05-09T11:59:14.702Z,69.34
2019-05-09T12:00:14.699Z,71.06
2019-05-09T12:01:14.697Z,68.40
2019-05-09T12:02:14.667Z,67.69
2019-05-09T12:03:14.659Z,68.87
2019-05-09T12:04:14.645Z,68.10
2019-05-09T12:05:14.639Z,67.76
2019-05-09T12:06:16.190Z,67.96
2019-05-09T12:07:14.677Z,67.05
2019-05-09T12:08:14.890Z,65.77
2019-05-09T12:09:15.069Z,66.78
2019-05-09T12:10:14.591Z,67.99
2019-05-09T12:11:14.576Z,68.16
2019-05-09T12:12:14.759Z,66.85
2019-05-09T12:13:14.558Z,67.29
2019-05-09T12:14:14.540Z,64.55
2019-05-09T12:15:14.535Z,65.67
2019-05-09T12:16:14.518Z,66.47
2019-05-09T12:17:14.536Z,64.76
2019-05-09T12:18:14.494Z,65.56
2019-05-09T12:19:14.483Z,63.67
2019-05-09T12:20:14.473Z,66.91
2019-05-09T12:21:14.464Z,66.20
2019-05-09T12:22:14.479Z,66.61
2019-05-09T12:23:14.441Z,65.39
2019-05-09T12:24:14.434Z,65.09
2019-05-09T12:25:14.419Z,67.82
2019-05-09T12:26:14.421Z,66.74
2019-05-09T12:27:14.417Z,65.73
2019-05-09T12:28:14.387Z,67.62
2019-05-09T12:29:14.378Z,68.06
2019-05-09T12:30:14.367Z,69.04
2019-05-09T12:31:14.389Z,68.26
2019-05-09T12:32:14.346Z,67.42
2019-05-09T12:33:14.335Z,63.37
2019-05-09T12:34:14.330Z,65.73
2019-05-09T12:35:14.313Z,65.25
2019-05-09T12:36:14.336Z,68.46
2019-05-09T12:37:14.291Z,67.65
2019-05-09T12:38:14.295Z,66.13
2019-05-09T12:39:14.274Z,67.18
2019-05-09T12:40:14.287Z,68.97
2019-05-09T12:41:14.248Z,70.49
2019-05-09T12:42:14.325Z,67.55
2019-05-09T12:43:14.239Z,67.14
2019-05-09T12:44:14.224Z,65.62
2019-05-09T12:45:14.203Z,67.65
2019-05-09T12:46:14.215Z,66.24
2019-05-09T12:47:14.279Z,67.14
2019-05-09T12:48:15.806Z,67.45
2019-05-09T12:49:14.160Z,65.83
2019-05-09T12:50:14.180Z,67.05
2019-05-09T12:51:14.163Z,67.14
2019-05-09T12:52:14.130Z,65.83
2019-05-09T12:53:14.169Z,66.57